Time;durP1;ratioP1;P1;durP2;ratioP2;P2;SDS_P1;SDS_P2;PMS_P1;PMS_P2;Temp;Humidity;BMP_temperature;BMP_pressure;BME280_temperature;BME280_humidity;BME280_pressure;Samples;Min_cycle;Max_cycle;Signal;HPM_P1;HPM_P2
2022/05/06 00:01:39;;;;;;;35.22;25.17;;;;;;;14.38;77.63;102399.31;5033077;28;20045;-51
2022/05/06 00:04:07;;;;;;;32.67;23.85;;;;;;;14.29;78.26;102393.44;5024884;28;20052;-50
2022/05/06 00:06:34;;;;;;;32.90;24.50;;;;;;;14.24;78.48;102390.66;5055600;28;20048;-48
2022/05/06 00:09:04;;;;;;;34.03;24.17;;;;;;;14.22;78.73;102396.38;5072860;28;20467;-48
2022/05/06 00:11:32;;;;;;;35.50;24.88;;;;;;;14.23;78.63;102392.53;5038220;28;20443;-49
2022/05/06 00:14:00;;;;;;;34.00;23.30;;;;;;;14.22;78.82;102398.28;5022235;28;20393;-49
2022/05/06 00:16:28;;;;;;;33.58;24.05;;;;;;;14.22;79.02;102395.56;5035625;28;20052;-49
2022/05/06 00:18:55;;;;;;;33.97;23.92;;;;;;;14.20;79.02;102398.53;5036607;28;20459;-46
2022/05/06 00:21:23;;;;;;;33.80;24.65;;;;;;;14.20;79.14;102394.97;5035240;28;20037;-48
2022/05/06 00:23:51;;;;;;;36.03;25.00;;;;;;;14.19;78.74;102401.50;5053969;28;20511;-48
2022/05/06 00:26:18;;;;;;;35.65;24.20;;;;;;;14.08;79.27;102400.56;5037547;28;20044;-49
2022/05/06 00:28:46;;;;;;;32.53;23.42;;;;;;;14.05;79.60;102401.91;5055277;28;20044;-48
2022/05/06 00:31:13;;;;;;;32.67;24.27;;;;;;;14.05;79.73;102399.16;5076378;28;20033;-48
2022/05/06 00:33:43;;;;;;;32.53;23.50;;;;;;;13.98;80.01;102406.72;5063775;28;20048;-47
2022/05/06 00:36:10;;;;;;;34.83;24.15;;;;;;;13.98;80.14;102397.69;5056840;28;20037;-50
2022/05/06 00:38:38;;;;;;;35.08;25.23;;;;;;;13.97;80.08;102405.06;5040162;28;20123;-48
2022/05/06 00:41:06;;;;;;;34.72;24.65;;;;;;;13.96;79.96;102406.16;5039094;28;20053;-50
2022/05/06 00:43:33;;;;;;;31.83;24.30;;;;;;;13.97;80.31;102410.53;5057704;28;20033;-48
2022/05/06 00:46:01;;;;;;;33.58;24.77;;;;;;;13.96;80.13;102402.59;5039567;28;20049;-48
2022/05/06 00:48:31;;;;;;;35.63;24.90;;;;;;;13.95;80.38;102393.53;5052775;28;20048;-49
2022/05/06 00:51:01;;;;;;;33.30;23.63;;;;;;;13.94;80.10;102397.34;5036567;28;20056;-50
2022/05/06 00:53:29;;;;;;;34.08;23.98;;;;;;;13.93;80.17;102400.34;5013077;28;20040;-49
2022/05/06 00:55:57;;;;;;;33.45;23.85;;;;;;;13.92;80.25;102399.50;5076538;28;20072;-49
2022/05/06 00:58:29;;;;;;;36.13;25.42;;;;;;;13.92;80.04;102398.69;5041218;28;20123;-49
2022/05/06 01:00:57;;;;;;;31.33;24.58;;;;;;;13.89;80.21;102396.44;5038518;28;20049;-48
2022/05/06 01:03:45;;;;;;;35.45;24.60;;;;;;;13.85;80.29;102394.22;5043319;28;20053;-49
2022/05/06 01:06:25;;;;;;;36.78;24.08;;;;;;;13.80;80.54;102399.59;5005003;28;20052;-46
2022/05/06 01:08:54;;;;;;;33.47;23.85;;;;;;;13.74;80.80;102400.63;5042603;28;20104;-46
2022/05/06 01:11:22;;;;;;;35.25;24.38;;;;;;;13.71;81.12;102397.53;5021953;28;20052;-45
2022/05/06 01:13:54;;;;;;;33.28;22.73;;;;;;;13.67;81.28;102399.97;5052890;28;20407;-45
2022/05/06 01:16:24;;;;;;;35.92;23.95;;;;;;;13.66;81.61;102402.94;5053168;28;20032;-46
2022/05/06 01:18:59;;;;;;;34.08;23.27;;;;;;;13.61;81.35;102401.81;5042751;28;20143;-46
2022/05/06 01:21:32;;;;;;;31.95;22.70;;;;;;;13.55;81.50;102400.03;5035985;28;20519;-46
2022/05/06 01:24:00;;;;;;;32.58;23.45;;;;;;;13.49;81.82;102403.75;5037108;28;20046;-48
2022/05/06 01:26:55;;;;;;;31.83;23.08;;;;;;;13.49;82.48;102403.75;5053782;28;20059;-48
2022/05/06 01:29:23;;;;;;;33.55;23.70;;;;;;;13.50;82.34;102399.97;5044098;28;20072;-49
2022/05/06 01:31:52;;;;;;;31.27;22.90;;;;;;;13.51;82.40;102411.75;5035260;28;20049;-48
2022/05/06 01:34:22;;;;;;;36.88;22.65;;;;;;;13.54;81.97;102405.75;5016056;28;20524;-48
2022/05/06 01:36:53;;;;;;;31.33;21.88;;;;;;;13.57;81.59;102411.59;5052678;28;20482;-50
2022/05/06 01:39:26;;;;;;;30.15;21.80;;;;;;;13.59;81.44;102412.16;5049504;28;20488;-49
2022/05/06 01:41:55;;;;;;;34.70;22.38;;;;;;;13.57;81.47;102408.84;5028506;28;20052;-49
2022/05/06 01:44:35;;;;;;;30.90;22.30;;;;;;;13.56;81.18;102409.91;5037549;28;20045;-50
2022/05/06 01:47:11;;;;;;;33.03;22.52;;;;;;;13.51;81.57;102401.63;5054292;28;20484;-48
2022/05/06 01:49:39;;;;;;;33.13;22.42;;;;;;;13.46;81.32;102409.75;5041087;28;20416;-52
2022/05/06 01:52:09;;;;;;;34.30;23.70;;;;;;;13.42;81.84;102411.31;5035964;28;20045;-48
2022/05/06 01:54:39;;;;;;;36.13;23.45;;;;;;;13.35;81.98;102419.72;5015321;28;20193;-50
2022/05/06 01:57:07;;;;;;;34.05;24.35;;;;;;;13.28;82.44;102418.22;4998231;28;20034;-49
2022/05/06 01:59:36;;;;;;;35.75;24.42;;;;;;;13.27;82.83;102421.97;5032494;28;20481;-48
2022/05/06 02:02:16;;;;;;;35.60;24.50;;;;;;;13.29;82.80;102422.59;5034377;28;20038;-49
2022/05/06 02:07:34;;;;;;;35.22;24.48;;;;;;;13.26;82.88;102414.84;5030200;28;20041;-47
2022/05/06 02:10:02;;;;;;;36.70;26.05;;;;;;;13.20;82.56;102412.03;5031630;28;20049;-53
2022/05/06 02:12:36;;;;;;;37.67;25.90;;;;;;;13.17;82.63;102422.63;5022319;28;20048;-49
2022/05/06 02:15:18;;;;;;;32.75;24.67;;;;;;;13.05;83.16;102414.47;5054039;28;20385;-52
2022/05/06 02:18:11;;;;;;;32.95;24.70;;;;;;;12.93;84.15;102416.44;5022163;28;20038;-51
2022/05/06 02:21:12;;;;;;;32.33;23.77;;;;;;;12.89;83.78;102415.25;5002487;28;20527;-50
2022/05/06 02:23:51;;;;;;;30.02;22.38;;;;;;;12.83;84.51;102414.34;5007937;28;20037;-49
2022/05/06 02:26:35;;;;;;;31.02;22.98;;;;;;;12.79;84.12;102421.38;5031672;28;20046;-49
2022/05/06 02:29:06;;;;;;;29.42;22.38;;;;;;;12.76;84.42;102411.75;5043642;28;20435;-50
2022/05/06 02:34:23;;;;;;;;;;;;;;;12.81;84.31;102418.41;5015715;28;20061;-51
2022/05/06 02:36:55;;;;;;;25.73;19.42;;;;;;;12.76;83.89;102422.69;5030913;28;20379;-50
2022/05/06 02:39:34;;;;;;;23.10;18.45;;;;;;;12.73;83.84;102423.19;5034817;28;20052;-48
2022/05/06 02:42:10;;;;;;;23.23;17.77;;;;;;;12.60;83.97;102426.19;5033467;28;20037;-49
2022/05/06 02:44:40;;;;;;;24.15;18.10;;;;;;;12.53;83.63;102422.75;5048013;28;20125;-51
2022/05/06 02:47:10;;;;;;;23.35;16.70;;;;;;;12.50;84.55;102417.78;5034536;28;20034;-50
2022/05/06 02:49:37;;;;;;;22.50;17.33;;;;;;;12.52;84.79;102416.47;5033125;28;20049;-49
2022/05/06 02:52:09;;;;;;;22.33;17.23;;;;;;;12.56;84.70;102416.81;5036585;28;20108;-49
2022/05/06 02:54:38;;;;;;;23.25;17.50;;;;;;;12.49;84.66;102422.41;5053129;28;20040;-50
2022/05/06 02:57:08;;;;;;;22.20;17.30;;;;;;;12.54;84.39;102429.91;5033708;28;20506;-51
2022/05/06 02:59:36;;;;;;;23.02;16.92;;;;;;;12.50;84.91;102420.50;5032930;28;20496;-46
2022/05/06 03:02:04;;;;;;;23.90;17.88;;;;;;;12.49;84.96;102425.16;5033567;28;20049;-49
2022/05/06 03:04:32;;;;;;;23.90;17.40;;;;;;;12.47;85.52;102429.19;5033580;28;20095;-48
2022/05/06 03:07:04;;;;;;;22.17;16.95;;;;;;;12.48;85.61;102425.38;5007509;28;20424;-50
2022/05/06 03:09:41;;;;;;;24.23;18.45;;;;;;;12.47;85.58;102426.47;5014151;28;20037;-50
2022/05/06 03:12:10;;;;;;;25.83;18.08;;;;;;;12.46;86.28;102422.06;5029531;28;20053;-50
2022/05/06 03:14:47;;;;;;;26.77;19.05;;;;;;;12.47;86.12;102423.72;5041563;28;20407;-48
2022/05/06 03:17:26;;;;;;;27.70;19.05;;;;;;;12.42;87.10;102421.72;5040925;28;20052;-50
2022/05/06 03:19:54;;;;;;;26.05;18.85;;;;;;;12.42;87.75;102423.63;5036433;28;20495;-48
2022/05/06 03:22:22;;;;;;;26.80;19.05;;;;;;;12.46;87.87;102422.06;5038928;28;20056;-48
2022/05/06 03:24:49;;;;;;;28.75;21.58;;;;;;;12.48;87.58;102418.03;5040335;28;20041;-48
2022/05/06 03:30:19;;;;;;;25.17;19.63;;;;;;;12.36;88.10;102415.31;5003971;28;20049;-49
2022/05/06 03:32:47;;;;;;;27.88;20.90;;;;;;;12.33;88.91;102418.50;5065601;28;20135;-47
2022/05/06 03:35:16;;;;;;;25.35;18.75;;;;;;;12.33;89.19;102418.50;5019220;28;20053;-50
2022/05/06 03:37:47;;;;;;;27.10;19.40;;;;;;;12.29;89.34;102421.97;5015915;28;20108;-50
2022/05/06 03:40:15;;;;;;;28.58;19.70;;;;;;;12.23;90.12;102415.56;5016063;28;20048;-46
2022/05/06 03:42:44;;;;;;;26.27;20.30;;;;;;;12.24;91.34;102422.72;5017117;28;20037;-52
2022/05/06 03:45:13;;;;;;;27.98;19.60;;;;;;;12.25;91.32;102421.63;5052200;28;20124;-49
2022/05/06 03:47:43;;;;;;;25.27;19.05;;;;;;;12.27;91.58;102421.41;5035192;28;20052;-49
2022/05/06 03:52:59;;;;;;;28.35;20.95;;;;;;;12.22;91.64;102419.38;5035510;28;20075;-51
2022/05/06 03:55:29;;;;;;;29.40;21.20;;;;;;;12.24;92.05;102424.59;5053145;28;20072;-49
2022/05/06 03:57:56;;;;;;;27.40;19.58;;;;;;;12.21;91.59;102425.91;5034689;28;20146;-51
2022/05/06 04:00:28;;;;;;;28.17;21.50;;;;;;;12.21;92.39;102425.91;5016592;28;20132;-50
2022/05/06 04:03:03;;;;;;;27.48;19.95;;;;;;;12.21;92.27;102428.63;5032648;28;20124;-50
2022/05/06 04:05:34;;;;;;;29.67;20.63;;;;;;;12.19;92.57;102421.75;5051630;28;20388;-50
2022/05/06 04:08:04;;;;;;;28.50;20.63;;;;;;;12.18;92.74;102431.84;5040846;28;20109;-51
2022/05/06 04:10:33;;;;;;;29.73;20.35;;;;;;;12.18;92.73;102431.84;5014589;28;20041;-49
2022/05/06 04:13:02;;;;;;;25.48;18.80;;;;;;;12.12;92.60;102427.34;5065192;28;20072;-49
2022/05/06 04:15:35;;;;;;;27.52;20.52;;;;;;;12.14;92.96;102425.19;5034490;28;20470;-49
2022/05/06 04:18:05;;;;;;;28.85;19.05;;;;;;;12.17;92.31;102434.81;5034337;28;20037;-52
2022/05/06 04:23:29;;;;;;;27.98;20.48;;;;;;;12.13;93.19;102435.31;5045382;28;20036;-48
2022/05/06 04:26:12;;;;;;;29.15;20.63;;;;;;;12.14;92.40;102436.13;5055251;28;20048;-50
2022/05/06 04:28:47;;;;;;;29.70;21.25;;;;;;;12.13;93.00;102445.41;5037848;28;20037;-49
2022/05/06 04:31:17;;;;;;;28.55;21.30;;;;;;;12.11;94.10;102434.72;5061530;28;20470;-50
2022/05/06 04:33:46;;;;;;;30.10;21.75;;;;;;;12.15;94.20;102435.91;5052829;28;20494;-49
2022/05/06 04:36:43;;;;;;;28.27;19.98;;;;;;;12.18;93.42;102431.03;5056123;28;20119;-46
2022/05/06 04:39:11;;;;;;;25.50;19.48;;;;;;;12.18;93.30;102448.25;5037973;28;20041;-46
2022/05/06 04:41:48;;;;;;;25.67;18.80;;;;;;;12.13;93.04;102439.94;5035692;28;20068;-47
2022/05/06 04:44:22;;;;;;;24.73;18.40;;;;;;;12.11;92.99;102447.53;5035986;28;20041;-49
2022/05/06 04:46:52;;;;;;;24.23;18.35;;;;;;;12.10;92.02;102445.91;5034167;28;20041;-49
2022/05/06 04:49:21;;;;;;;23.25;17.60;;;;;;;12.06;92.99;102445.53;5034238;28;20049;-46
2022/05/06 04:51:50;;;;;;;26.13;18.58;;;;;;;12.07;93.09;102443.63;5042399;28;20045;-50
2022/05/06 04:54:18;;;;;;;26.83;18.48;;;;;;;12.07;93.28;102451.81;5034037;28;20049;-49
2022/05/06 04:56:49;;;;;;;22.00;16.88;;;;;;;12.04;92.45;102453.13;5034260;28;20574;-48
2022/05/06 04:59:24;;;;;;;24.48;18.45;;;;;;;12.00;93.47;102459.31;5023006;28;20041;-48
2022/05/06 05:01:54;;;;;;;26.55;19.50;;;;;;;12.04;93.73;102463.22;5021563;28;20037;-48
2022/05/06 05:04:27;;;;;;;24.55;19.05;;;;;;;12.06;93.28;102466.56;5034635;28;20044;-47
2022/05/06 05:07:00;;;;;;;23.10;18.15;;;;;;;12.05;92.96;102460.28;5033824;28;20132;-49
2022/05/06 05:09:29;;;;;;;25.48;19.00;;;;;;;12.04;92.99;102465.97;5037423;28;20036;-48
2022/05/06 05:11:57;;;;;;;23.35;17.55;;;;;;;12.00;92.60;102473.81;5046417;28;20057;-51
2022/05/06 05:14:38;;;;;;;24.42;18.48;;;;;;;11.93;93.78;102476.66;5025630;28;20109;-48
2022/05/06 05:17:09;;;;;;;23.17;17.65;;;;;;;11.91;93.85;102476.06;5040344;28;20090;-49
2022/05/06 05:19:38;;;;;;;22.85;16.65;;;;;;;11.90;94.54;102482.56;5039155;28;20048;-52
2022/05/06 05:22:06;;;;;;;21.55;16.42;;;;;;;11.86;94.26;102489.56;5039338;28;20103;-48
2022/05/06 05:24:36;;;;;;;21.83;17.05;;;;;;;11.89;94.61;102483.66;5040755;28;20507;-50
2022/05/06 05:27:04;;;;;;;20.73;16.65;;;;;;;11.85;94.84;102489.78;5037923;28;20041;-49
2022/05/06 05:29:33;;;;;;;23.27;16.55;;;;;;;11.83;94.39;102484.53;5039830;28;20571;-50
2022/05/06 05:32:02;;;;;;;21.80;17.15;;;;;;;11.80;93.66;102485.03;5058110;28;20442;-47
2022/05/06 05:34:31;;;;;;;24.67;17.33;;;;;;;11.79;94.38;102488.84;5039765;28;20041;-49
2022/05/06 05:36:59;;;;;;;21.40;16.08;;;;;;;11.77;94.49;102479.22;5038315;28;20120;-47
2022/05/06 05:39:26;;;;;;;21.85;16.67;;;;;;;11.75;94.67;102481.34;5041201;28;20040;-49
2022/05/06 05:41:58;;;;;;;21.02;15.75;;;;;;;11.70;94.39;102484.78;5035997;28;20454;-50
2022/05/06 05:50:01;;;;;;;19.65;15.15;;;;;;;11.82;94.96;102476.59;5030027;28;20045;-48
2022/05/06 05:52:30;;;;;;;21.17;16.17;;;;;;;11.84;95.66;102482.66;5040687;28;20463;-47
2022/05/06 05:54:58;;;;;;;21.23;15.45;;;;;;;11.85;94.79;102482.41;5044055;28;20055;-51
2022/05/06 05:57:25;;;;;;;20.38;15.40;;;;;;;11.87;95.20;102491.25;4338707;28;9999927;-51
2022/05/06 05:59:54;;;;;;;21.13;15.55;;;;;;;11.93;94.58;102492.22;5041927;28;20056;-52
2022/05/06 06:02:23;;;;;;;20.55;15.68;;;;;;;11.92;94.83;102485.91;5033465;28;20055;-49
2022/05/06 06:04:55;;;;;;;21.35;16.08;;;;;;;11.93;94.78;102479.38;5035552;28;20103;-48
2022/05/06 06:07:24;;;;;;;22.27;16.20;;;;;;;11.86;95.38;102484.09;5039519;28;20052;-49
2022/05/06 06:09:56;;;;;;;22.13;17.67;;;;;;;11.91;96.43;102478.78;5034103;28;20400;-51
2022/05/06 06:12:24;;;;;;;22.75;18.13;;;;;;;11.95;96.82;102479.13;5034842;28;20048;-51
2022/05/06 06:14:55;;;;;;;24.33;18.15;;;;;;;11.94;96.53;102483.75;5035130;28;20052;-52
2022/05/06 06:17:24;;;;;;;22.77;16.65;;;;;;;11.98;96.38;102486.00;5033989;28;20562;-53
2022/05/06 06:19:53;;;;;;;22.17;16.75;;;;;;;12.00;95.82;102489.34;5033764;28;20136;-50
2022/05/06 06:22:21;;;;;;;22.58;16.88;;;;;;;12.00;95.74;102483.88;5052468;28;20075;-53
2022/05/06 06:24:57;;;;;;;21.52;16.42;;;;;;;12.00;94.89;102481.16;5015059;28;20046;-51
2022/05/06 06:27:27;;;;;;;21.50;17.30;;;;;;;11.99;94.80;102482.22;5047274;28;20076;-48
2022/05/06 06:29:57;;;;;;;23.17;17.48;;;;;;;11.99;95.97;102485.78;5054008;28;20512;-49
2022/05/06 06:32:26;;;;;;;24.45;18.70;;;;;;;12.00;96.20;102489.34;5053494;28;20048;-49
2022/05/06 06:34:55;;;;;;;28.13;18.92;;;;;;;11.99;96.59;102488.53;5048953;28;20029;-49
2022/05/06 06:37:27;;;;;;;24.25;17.73;;;;;;;12.01;96.97;102485.56;5033494;28;20124;-45
2022/05/06 06:39:55;;;;;;;22.70;17.27;;;;;;;12.04;96.62;102480.44;5033420;28;20123;-45
2022/05/06 06:42:23;;;;;;;26.42;18.48;;;;;;;12.08;96.92;102486.28;5037852;28;20044;-46
2022/05/06 06:45:07;;;;;;;23.80;17.98;;;;;;;12.15;97.55;102481.53;5053152;28;20044;-49
2022/05/06 06:48:10;;;;;;;26.20;18.83;;;;;;;12.20;96.65;102489.84;5041429;28;20045;-50
2022/05/06 06:50:58;;;;;;;25.42;19.20;;;;;;;12.17;97.28;102493.06;5051289;28;20102;-47
2022/05/06 06:53:30;;;;;;;26.35;19.58;;;;;;;12.18;97.68;102497.44;5035468;28;20047;-49
2022/05/06 06:55:58;;;;;;;28.42;18.90;;;;;;;12.17;97.67;102486.75;5051708;28;20049;-50
2022/05/06 06:58:26;;;;;;;26.67;19.58;;;;;;;12.22;98.11;102492.31;5046606;28;20037;-50
2022/05/06 07:00:54;;;;;;;27.55;19.67;;;;;;;12.22;98.12;102501.38;5049863;28;20071;-49
2022/05/06 07:03:22;;;;;;;25.88;19.05;;;;;;;12.19;97.51;102515.50;5065114;28;20123;-52
2022/05/06 07:14:08;;;;;;;;;;;;;;;11.93;99.54;102525.81;5068975;28;20072;-50
2022/05/06 07:16:38;;;;;;;22.98;17.77;;;;;;;11.96;99.36;102529.16;5070717;28;19990;-49
2022/05/06 07:19:06;;;;;;;22.90;17.02;;;;;;;11.91;99.41;102525.22;5065133;28;20582;-48
2022/05/06 07:21:34;;;;;;;24.25;17.25;;;;;;;11.91;98.63;102527.94;5066705;28;20047;-50
2022/05/06 07:24:01;;;;;;;22.27;16.45;;;;;;;11.92;98.95;102531.50;5032610;28;20049;-50
2022/05/06 07:26:30;;;;;;;24.02;16.83;;;;;;;11.92;99.42;102532.34;5053279;28;20056;-50
2022/05/06 07:28:59;;;;;;;22.40;16.23;;;;;;;11.88;99.44;102533.03;5036952;28;20045;-46
2022/05/06 07:31:27;;;;;;;19.30;15.15;;;;;;;11.82;99.78;102537.50;5053739;28;20051;-48
2022/05/06 07:33:55;;;;;;;25.83;16.60;;;;;;;11.76;99.94;102538.47;5054543;28;20143;-49
2022/05/06 07:36:23;;;;;;;23.85;16.30;;;;;;;11.79;100.00;102537.16;5053405;28;20047;-48
2022/05/06 07:38:51;;;;;;;22.88;17.17;;;;;;;11.77;98.98;102544.75;5052440;28;20048;-49
2022/05/06 07:41:19;;;;;;;20.98;15.77;;;;;;;11.70;99.74;102555.78;5035424;28;20055;-49
2022/05/06 07:43:47;;;;;;;22.00;15.75;;;;;;;11.66;100.00;102549.09;5054222;28;20041;-49
2022/05/06 07:46:14;;;;;;;25.75;18.33;;;;;;;11.68;100.00;102549.72;5035679;28;20047;-46
2022/05/06 07:48:42;;;;;;;25.02;17.33;;;;;;;11.72;99.78;102550.91;5053069;28;20049;-49
2022/05/06 07:51:10;;;;;;;22.20;16.70;;;;;;;11.78;99.71;102558.16;5053393;28;20483;-50
2022/05/06 07:53:38;;;;;;;23.92;17.23;;;;;;;11.83;100.00;102561.00;5054465;28;20079;-50
2022/05/06 07:56:06;;;;;;;23.08;16.77;;;;;;;11.87;100.00;102556.78;5055237;28;20075;-50
2022/05/06 07:58:35;;;;;;;23.23;13.65;;;;;;;11.97;100.00;102560.84;5054283;28;20480;-49
2022/05/06 08:01:02;;;;;;;25.55;17.80;;;;;;;12.01;99.91;102560.16;5036554;28;20045;-49
2022/05/06 08:06:17;;;;;;;29.13;19.73;;;;;;;12.03;99.36;102557.19;5053068;28;20110;-48
2022/05/06 08:08:44;;;;;;;24.90;18.30;;;;;;;12.06;99.73;102554.00;5053193;28;20092;-51
2022/05/06 08:11:12;;;;;;;23.60;17.00;;;;;;;12.13;98.79;102560.19;5056285;28;20044;-49
2022/05/06 08:13:40;;;;;;;24.25;18.60;;;;;;;12.20;98.51;102557.34;5053935;28;20061;-49
2022/05/06 08:16:07;;;;;;;25.30;18.65;;;;;;;12.25;97.86;102558.28;5052909;28;20048;-47
2022/05/06 08:18:35;;;;;;;26.30;19.52;;;;;;;12.28;98.38;102552.34;5052920;28;20099;-50
2022/05/06 08:21:03;;;;;;;25.15;19.25;;;;;;;12.29;98.31;102554.00;5039402;28;20032;-51
2022/05/06 08:23:31;;;;;;;25.42;18.75;;;;;;;12.34;97.87;102562.34;5072504;28;20037;-49
2022/05/06 08:25:58;;;;;;;27.90;19.77;;;;;;;12.33;98.52;102562.56;5072731;28;20055;-50
2022/05/06 08:28:28;;;;;;;24.38;17.17;;;;;;;12.34;98.37;102564.25;5055282;28;20090;-49
2022/05/06 08:30:55;;;;;;;26.80;19.70;;;;;;;12.41;98.29;102561.38;5072591;28;20395;-51
2022/05/06 08:33:26;;;;;;;27.75;19.80;;;;;;;12.43;97.35;102564.69;5051021;28;20151;-49
2022/05/06 08:35:54;;;;;;;27.25;18.80;;;;;;;12.43;97.51;102556.50;5072800;28;20047;-50
2022/05/06 08:38:22;;;;;;;26.73;19.25;;;;;;;12.45;98.38;102551.63;5072860;28;20048;-49
2022/05/06 08:40:50;;;;;;;26.92;19.77;;;;;;;12.48;97.34;102551.16;5050484;28;20048;-50
2022/05/06 08:43:17;;;;;;;28.42;21.25;;;;;;;12.52;97.27;102550.44;5052783;28;20480;-52
2022/05/06 08:51:32;;;;;;;29.27;20.83;;;;;;;12.73;97.29;102539.97;5057033;28;20507;-49
2022/05/06 08:53:59;;;;;;;21.08;14.30;;;;;;;12.83;96.72;102534.69;5056443;28;20041;-50
2022/05/06 08:56:28;;;;;;;23.63;18.45;;;;;;;12.91;95.82;102533.50;5057283;28;20068;-50
2022/05/06 08:58:55;;;;;;;24.20;18.33;;;;;;;12.96;95.97;102539.06;5036757;28;20072;-50
2022/05/06 09:01:23;;;;;;;27.67;20.98;;;;;;;13.00;94.89;102534.78;5058153;28;20040;-49
2022/05/06 09:03:52;;;;;;;26.02;19.40;;;;;;;13.06;94.77;102528.34;5058723;28;20064;-47
2022/05/06 09:06:23;;;;;;;33.63;22.77;;;;;;;13.07;95.06;102526.44;5076334;28;20487;-48
2022/05/06 09:08:53;;;;;;;33.20;23.63;;;;;;;13.04;94.64;102526.94;5058742;28;20538;-49
2022/05/06 09:14:15;;;;;;;28.90;21.27;;;;;;;13.12;94.62;102534.75;5017514;28;20041;-50
2022/05/06 09:16:44;;;;;;;26.60;19.50;;;;;;;13.14;94.38;102532.59;5056227;28;20151;-49
2022/05/06 09:19:20;;;;;;;27.98;20.85;;;;;;;13.15;94.23;102537.81;5039261;28;20487;-49
2022/05/06 09:22:06;;;;;;;24.40;18.73;;;;;;;13.20;94.33;102528.88;5040979;28;20128;-50
2022/05/06 09:24:33;;;;;;;;;;;;;;;13.28;94.25;102534.00;5036464;28;20116;-50
2022/05/06 09:27:02;;;;;;;32.00;23.73;;;;;;;13.29;94.43;102534.84;5035909;28;19927;-49
2022/05/06 09:29:34;;;;;;;34.25;22.67;;;;;;;13.26;94.47;102532.56;5036090;28;20045;-48
2022/05/06 09:32:27;;;;;;;30.13;21.23;;;;;;;13.26;94.35;102529.81;5037980;28;20530;-50
2022/05/06 09:34:54;;;;;;;26.85;20.52;;;;;;;13.22;94.62;102527.56;5035914;28;20042;-51
2022/05/06 09:37:33;;;;;;;32.15;21.52;;;;;;;13.28;94.51;102527.72;5035729;28;20492;-50
2022/05/06 09:40:12;;;;;;;28.23;21.40;;;;;;;13.31;94.46;102522.56;5035844;28;20076;-52
2022/05/06 09:42:40;;;;;;;29.88;20.92;;;;;;;13.37;94.44;102527.06;5019063;28;20045;-51
2022/05/06 09:45:10;;;;;;;29.25;20.73;;;;;;;13.41;94.15;102514.53;5036575;28;20069;-50
2022/05/06 09:47:40;;;;;;;26.60;20.50;;;;;;;13.48;94.28;102508.91;5035889;28;20144;-49
2022/05/06 09:50:09;;;;;;;26.73;20.67;;;;;;;13.52;93.70;102501.88;5036301;28;20206;-49
2022/05/06 09:52:37;;;;;;;24.45;15.38;;;;;;;13.63;93.50;102511.09;5055263;28;20049;-49
2022/05/06 09:55:07;;;;;;;18.25;13.00;;;;;;;13.81;92.41;102504.56;5055335;28;20488;-53
2022/05/06 09:57:37;;;;;;;27.08;19.77;;;;;;;13.97;91.87;102511.94;5034380;28;20041;-49
2022/05/06 10:00:06;;;;;;;20.00;14.45;;;;;;;14.03;90.70;102502.72;5054866;28;20041;-50
2022/05/06 10:02:37;;;;;;;20.52;14.90;;;;;;;14.10;89.68;102507.22;5018361;28;20052;-52
2022/05/06 10:05:05;;;;;;;25.48;19.13;;;;;;;14.09;90.01;102502.81;5053467;28;20128;-52
2022/05/06 10:07:33;;;;;;;24.58;17.70;;;;;;;14.10;90.34;102504.47;5037629;28;20045;-50
2022/05/06 10:10:05;;;;;;;25.08;18.92;;;;;;;14.19;89.10;102508.44;5041039;28;20053;-50
2022/05/06 10:12:39;;;;;;;26.98;19.33;;;;;;;14.17;89.79;102502.41;4327578;28;10000533;-52
2022/05/06 10:15:11;;;;;;;16.90;12.48;;;;;;;14.20;89.67;102501.88;5036576;28;20048;-52
2022/05/06 10:17:53;;;;;;;24.20;17.17;;;;;;;14.23;89.92;102506.84;5035359;28;20061;-50
2022/05/06 10:20:36;;;;;;;17.52;11.77;;;;;;;14.33;88.29;102500.69;5019026;28;20044;-49
2022/05/06 10:23:07;;;;;;;20.42;12.38;;;;;;;14.44;87.28;102492.38;5053237;28;20056;-49
2022/05/06 10:25:41;;;;;;;25.70;18.63;;;;;;;14.42;87.90;102500.00;5072222;28;20056;-50
2022/05/06 10:34:15;;;;;;;24.45;15.82;;;;;;;14.46;86.82;102483.88;5031250;28;20059;-49
2022/05/06 10:36:45;;;;;;;20.67;15.07;;;;;;;14.46;86.66;102484.72;5052015;28;20048;-50
2022/05/06 10:39:27;;;;;;;22.63;15.35;;;;;;;14.47;86.09;102483.63;5054340;28;20087;-49
2022/05/06 10:42:05;;;;;;;17.30;12.20;;;;;;;14.48;83.54;102481.72;5067119;28;20048;-52
2022/05/06 10:44:39;;;;;;;13.93;9.93;;;;;;;14.52;81.80;102476.56;5074678;28;20056;-49
2022/05/06 10:47:13;;;;;;;14.30;9.98;;;;;;;14.59;81.66;102478.06;5055128;28;20162;-49
2022/05/06 10:49:42;;;;;;;16.77;11.57;;;;;;;14.69;82.20;102478.16;5075379;28;20091;-53
2022/05/06 10:52:26;;;;;;;14.93;10.60;;;;;;;14.79;81.18;102468.41;5073293;28;20076;-52
2022/05/06 10:55:00;;;;;;;12.75;7.97;;;;;;;14.86;80.97;102467.16;5074795;28;20436;-48
2022/05/06 10:57:31;;;;;;;13.57;9.45;;;;;;;14.95;81.15;102463.94;5074327;28;20086;-50
2022/05/06 11:00:07;;;;;;;10.35;7.07;;;;;;;15.04;80.94;102467.91;5069478;28;20047;-52
2022/05/06 11:02:36;;;;;;;16.90;11.38;;;;;;;15.11;79.87;102468.53;5053956;28;20048;-51
2022/05/06 11:05:05;;;;;;;13.95;9.70;;;;;;;15.15;79.64;102446.84;5019882;28;20043;-51
2022/05/06 11:07:34;;;;;;;14.77;10.43;;;;;;;15.13;78.03;102455.38;5053915;28;20484;-52
2022/05/06 11:10:13;;;;;;;13.90;10.23;;;;;;;15.15;77.72;102460.59;5070276;28;20046;-50
2022/05/06 11:12:43;;;;;;;13.57;8.88;;;;;;;15.19;77.16;102454.31;5045058;28;20053;-50
2022/05/06 11:15:19;;;;;;;10.30;6.95;;;;;;;15.40;77.81;102457.28;5053813;28;20045;-52
2022/05/06 11:17:47;;;;;;;12.38;9.27;;;;;;;15.38;75.57;102457.53;5053749;28;20053;-49
2022/05/06 11:20:23;;;;;;;8.25;4.90;;;;;;;15.50;76.70;102457.38;5054606;28;20518;-51
2022/05/06 11:23:03;;;;;;;16.13;9.18;;;;;;;15.50;73.75;102457.38;5053434;28;20492;-51
2022/05/06 11:25:34;;;;;;;12.80;7.22;;;;;;;15.52;74.41;102457.94;5035962;28;20053;-51
2022/05/06 11:28:04;;;;;;;11.98;6.65;;;;;;;15.57;74.56;102448.91;5053693;28;20041;-50
2022/05/06 11:30:32;;;;;;;9.27;6.03;;;;;;;15.58;73.56;102445.06;5037286;28;20087;-49
2022/05/06 11:33:03;;;;;;;13.82;9.18;;;;;;;15.62;73.59;102452.53;5054446;28;20511;-51
2022/05/06 11:35:39;;;;;;;14.10;10.25;;;;;;;15.67;73.93;102444.31;5053587;28;20055;-51
2022/05/06 11:38:07;;;;;;;15.10;9.65;;;;;;;15.68;73.08;102443.25;5053300;28;20098;-51
2022/05/06 11:40:36;;;;;;;10.35;6.95;;;;;;;15.72;73.11;102436.13;5036869;28;20052;-49
2022/05/06 11:43:06;;;;;;;9.13;6.25;;;;;;;15.82;73.46;102435.38;5053179;28;20069;-48
2022/05/06 11:48:22;;;;;;;12.18;8.68;;;;;;;16.07;72.11;102426.50;5053267;28;20056;-50
2022/05/06 11:51:08;;;;;;;13.02;9.32;;;;;;;16.03;71.10;102430.03;5054395;28;20561;-53
2022/05/06 11:53:36;;;;;;;7.63;4.35;;;;;;;16.06;72.44;102429.50;5036693;28;20411;-48
2022/05/06 11:56:04;;;;;;;9.77;4.05;;;;;;;16.23;72.43;102430.13;5035835;28;20399;-52
2022/05/06 11:58:33;;;;;;;12.65;8.75;;;;;;;16.26;70.31;102428.78;5036663;28;20041;-45
2022/05/06 12:01:01;;;;;;;17.27;11.02;;;;;;;16.21;71.33;102426.00;5072571;28;20506;-49
2022/05/06 12:03:29;;;;;;;13.88;8.70;;;;;;;16.21;72.14;102415.00;5053058;28;20048;-49
2022/05/06 12:06:26;;;;;;;12.00;7.78;;;;;;;16.21;71.54;102415.00;5072302;28;20040;-50
2022/05/06 12:09:10;;;;;;;15.02;10.18;;;;;;;16.18;70.14;102411.69;5071322;28;20060;-49
2022/05/06 12:11:39;;;;;;;15.35;9.40;;;;;;;16.15;70.02;102417.72;5071086;28;20059;-51
2022/05/06 12:14:08;;;;;;;15.98;9.50;;;;;;;16.13;70.31;102405.34;5020475;28;20137;-50
2022/05/06 12:16:36;;;;;;;17.48;10.65;;;;;;;16.13;70.68;102408.09;5034305;28;20052;-50
2022/05/06 12:19:03;;;;;;;17.05;9.52;;;;;;;16.19;70.12;102404.28;5045901;28;20095;-55